臺中航空站 - ATIS

METAR RCMQ 211100Z 24005KT 9999 FEW010 SCT200 23/21 Q1015 NOSIG RMK A2998=

站台狀態:Online
最後更新:2024-02-21 19:30:01